<?xml version="1.0" encoding="UTF-8" standalone="no" ?>
<gpx xmlns="http://www.topografix.com/GPX/1/1" xmlns:xsi="http://www.w3.org/2001/XMLSchema-instance" xsi:schemaLocation="http://www.topografix.com/GPX/1/1 http://www.topografix.com/GPX/1/1/gpx.xsd" version="1.1" creator="VisuGPX - https://www.visugpx.com">
  <metadata>
    <name>trail crete pilat</name>
    <desc><![CDATA[trail crete pilat au départ de chavanol (saint chamond)]]></desc>
  </metadata>
  <trk>
    <name><![CDATA[OR-7733435--Valla-en-Gier (La):Chavanol_CretesPilat]]></name>
    <trkseg>
      <trkpt lat="45.43205" lon="4.54506">
        <ele>792</ele>
        <time>2017-07-31T14:47:57Z</time>
      </trkpt>
      <trkpt lat="45.43298" lon="4.54236">
        <ele>801</ele>
        <time>2017-07-31T14:49:57Z</time>
      </trkpt>
      <trkpt lat="45.434" lon="4.54108">
        <ele>802</ele>
        <time>2017-07-31T14:51:57Z</time>
      </trkpt>
      <trkpt lat="45.43448" lon="4.53945">
        <ele>815</ele>
        <time>2017-07-31T14:53:57Z</time>
      </trkpt>
      <trkpt lat="45.43491" lon="4.53756">
        <ele>824</ele>
        <time>2017-07-31T14:55:57Z</time>
      </trkpt>
      <trkpt lat="45.43442" lon="4.53627">
        <ele>821</ele>
        <time>2017-07-31T14:57:57Z</time>
      </trkpt>
      <trkpt lat="45.43322" lon="4.53704">
        <ele>835</ele>
        <time>2017-07-31T14:59:57Z</time>
      </trkpt>
      <trkpt lat="45.43177" lon="4.53885">
        <ele>843</ele>
        <time>2017-07-31T15:01:57Z</time>
      </trkpt>
      <trkpt lat="45.43087" lon="4.54151">
        <ele>846</ele>
        <time>2017-07-31T15:03:57Z</time>
      </trkpt>
      <trkpt lat="45.42991" lon="4.54262">
        <ele>848</ele>
        <time>2017-07-31T15:05:57Z</time>
      </trkpt>
      <trkpt lat="45.42876" lon="4.54417">
        <ele>862</ele>
        <time>2017-07-31T15:07:57Z</time>
      </trkpt>
      <trkpt lat="45.42756" lon="4.54477">
        <ele>882</ele>
        <time>2017-07-31T15:09:57Z</time>
      </trkpt>
      <trkpt lat="45.42599" lon="4.54545">
        <ele>891</ele>
        <time>2017-07-31T15:11:57Z</time>
      </trkpt>
      <trkpt lat="45.42376" lon="4.54606">
        <ele>884</ele>
        <time>2017-07-31T15:13:57Z</time>
      </trkpt>
      <trkpt lat="45.42268" lon="4.54657">
        <ele>883</ele>
        <time>2017-07-31T15:15:57Z</time>
      </trkpt>
      <trkpt lat="45.42129" lon="4.54597">
        <ele>880</ele>
        <time>2017-07-31T15:17:57Z</time>
      </trkpt>
      <trkpt lat="45.41997" lon="4.54648">
        <ele>888</ele>
        <time>2017-07-31T15:19:57Z</time>
      </trkpt>
      <trkpt lat="45.41918" lon="4.54769">
        <ele>867</ele>
        <time>2017-07-31T15:21:57Z</time>
      </trkpt>
      <trkpt lat="45.41623" lon="4.54863">
        <ele>843</ele>
        <time>2017-07-31T15:23:57Z</time>
      </trkpt>
      <trkpt lat="45.41533" lon="4.54897">
        <ele>844</ele>
        <time>2017-07-31T15:25:57Z</time>
      </trkpt>
      <trkpt lat="45.41412" lon="4.55018">
        <ele>867</ele>
        <time>2017-07-31T15:27:57Z</time>
      </trkpt>
      <trkpt lat="45.41328" lon="4.55112">
        <ele>884</ele>
        <time>2017-07-31T15:29:57Z</time>
      </trkpt>
      <trkpt lat="45.4128" lon="4.55249">
        <ele>895</ele>
        <time>2017-07-31T15:31:57Z</time>
      </trkpt>
      <trkpt lat="45.41189" lon="4.55318">
        <ele>902</ele>
        <time>2017-07-31T15:33:57Z</time>
      </trkpt>
      <trkpt lat="45.41105" lon="4.55481">
        <ele>939</ele>
        <time>2017-07-31T15:35:57Z</time>
      </trkpt>
      <trkpt lat="45.41003" lon="4.55558">
        <ele>946</ele>
        <time>2017-07-31T15:37:57Z</time>
      </trkpt>
      <trkpt lat="45.40876" lon="4.55644">
        <ele>939</ele>
        <time>2017-07-31T15:39:57Z</time>
      </trkpt>
      <trkpt lat="45.4081" lon="4.55833">
        <ele>955</ele>
        <time>2017-07-31T15:41:57Z</time>
      </trkpt>
      <trkpt lat="45.4081" lon="4.56065">
        <ele>984</ele>
        <time>2017-07-31T15:43:57Z</time>
      </trkpt>
      <trkpt lat="45.40713" lon="4.56142">
        <ele>986</ele>
        <time>2017-07-31T15:45:57Z</time>
      </trkpt>
      <trkpt lat="45.40545" lon="4.56185">
        <ele>983</ele>
        <time>2017-07-31T15:47:57Z</time>
      </trkpt>
      <trkpt lat="45.40448" lon="4.56073">
        <ele>986</ele>
        <time>2017-07-31T15:49:57Z</time>
      </trkpt>
      <trkpt lat="45.4037" lon="4.55893">
        <ele>973</ele>
        <time>2017-07-31T15:51:57Z</time>
      </trkpt>
      <trkpt lat="45.40297" lon="4.55738">
        <ele>965</ele>
        <time>2017-07-31T15:53:57Z</time>
      </trkpt>
      <trkpt lat="45.40183" lon="4.55747">
        <ele>947</ele>
        <time>2017-07-31T15:55:57Z</time>
      </trkpt>
      <trkpt lat="45.39978" lon="4.55773">
        <ele>924</ele>
        <time>2017-07-31T15:57:57Z</time>
      </trkpt>
      <trkpt lat="45.39803" lon="4.5585">
        <ele>918</ele>
        <time>2017-07-31T15:59:57Z</time>
      </trkpt>
      <trkpt lat="45.39755" lon="4.55713">
        <ele>905</ele>
        <time>2017-07-31T16:01:57Z</time>
      </trkpt>
      <trkpt lat="45.39767" lon="4.55507">
        <ele>856</ele>
        <time>2017-07-31T16:03:57Z</time>
      </trkpt>
      <trkpt lat="45.39653" lon="4.55369">
        <ele>848</ele>
        <time>2017-07-31T16:05:57Z</time>
      </trkpt>
      <trkpt lat="45.3958" lon="4.55301">
        <ele>843</ele>
        <time>2017-07-31T16:07:57Z</time>
      </trkpt>
      <trkpt lat="45.39532" lon="4.55412">
        <ele>883</ele>
        <time>2017-07-31T16:09:57Z</time>
      </trkpt>
      <trkpt lat="45.39592" lon="4.55541">
        <ele>911</ele>
        <time>2017-07-31T16:11:57Z</time>
      </trkpt>
      <trkpt lat="45.3946" lon="4.55575">
        <ele>938</ele>
        <time>2017-07-31T16:13:57Z</time>
      </trkpt>
      <trkpt lat="45.39532" lon="4.55687">
        <ele>968</ele>
        <time>2017-07-31T16:15:57Z</time>
      </trkpt>
      <trkpt lat="45.39641" lon="4.55799">
        <ele>974</ele>
        <time>2017-07-31T16:17:57Z</time>
      </trkpt>
      <trkpt lat="45.39641" lon="4.55953">
        <ele>992</ele>
        <time>2017-07-31T16:19:57Z</time>
      </trkpt>
      <trkpt lat="45.39556" lon="4.56005">
        <ele>1044</ele>
        <time>2017-07-31T16:21:57Z</time>
      </trkpt>
      <trkpt lat="45.3946" lon="4.56056">
        <ele>1084</ele>
        <time>2017-07-31T16:23:57Z</time>
      </trkpt>
      <trkpt lat="45.39448" lon="4.56236">
        <ele>1138</ele>
        <time>2017-07-31T16:25:57Z</time>
      </trkpt>
      <trkpt lat="45.39387" lon="4.56425">
        <ele>1182</ele>
        <time>2017-07-31T16:27:57Z</time>
      </trkpt>
      <trkpt lat="45.39321" lon="4.5652">
        <ele>1214</ele>
        <time>2017-07-31T16:29:57Z</time>
      </trkpt>
      <trkpt lat="45.39261" lon="4.56665">
        <ele>1236</ele>
        <time>2017-07-31T16:31:57Z</time>
      </trkpt>
      <trkpt lat="45.39128" lon="4.56683">
        <ele>1266</ele>
        <time>2017-07-31T16:33:57Z</time>
      </trkpt>
      <trkpt lat="45.39062" lon="4.56786">
        <ele>1279</ele>
        <time>2017-07-31T16:35:57Z</time>
      </trkpt>
      <trkpt lat="45.39002" lon="4.56983">
        <ele>1301</ele>
        <time>2017-07-31T16:37:57Z</time>
      </trkpt>
      <trkpt lat="45.39002" lon="4.5712">
        <ele>1308</ele>
        <time>2017-07-31T16:39:57Z</time>
      </trkpt>
      <trkpt lat="45.39002" lon="4.57249">
        <ele>1305</ele>
        <time>2017-07-31T16:41:57Z</time>
      </trkpt>
      <trkpt lat="45.3899" lon="4.57429">
        <ele>1311</ele>
        <time>2017-07-31T16:43:57Z</time>
      </trkpt>
      <trkpt lat="45.38905" lon="4.57489">
        <ele>1323</ele>
        <time>2017-07-31T16:45:57Z</time>
      </trkpt>
      <trkpt lat="45.38809" lon="4.57447">
        <ele>1326</ele>
        <time>2017-07-31T16:47:57Z</time>
      </trkpt>
      <trkpt lat="45.38694" lon="4.57498">
        <ele>1346</ele>
        <time>2017-07-31T16:49:57Z</time>
      </trkpt>
      <trkpt lat="45.38598" lon="4.57584">
        <ele>1364</ele>
        <time>2017-07-31T16:51:57Z</time>
      </trkpt>
      <trkpt lat="45.38471" lon="4.57592">
        <ele>1383</ele>
        <time>2017-07-31T16:53:57Z</time>
      </trkpt>
      <trkpt lat="45.38351" lon="4.57575">
        <ele>1398</ele>
        <time>2017-07-31T16:55:57Z</time>
      </trkpt>
      <trkpt lat="45.3826" lon="4.57335">
        <ele>1420</ele>
        <time>2017-07-31T16:57:57Z</time>
      </trkpt>
      <trkpt lat="45.38254" lon="4.57198">
        <ele>1419</ele>
        <time>2017-07-31T16:59:57Z</time>
      </trkpt>
      <trkpt lat="45.3826" lon="4.57447">
        <ele>1406</ele>
        <time>2017-07-31T17:01:57Z</time>
      </trkpt>
      <trkpt lat="45.38266" lon="4.57644">
        <ele>1398</ele>
        <time>2017-07-31T17:03:57Z</time>
      </trkpt>
      <trkpt lat="45.38321" lon="4.57893">
        <ele>1410</ele>
        <time>2017-07-31T17:05:57Z</time>
      </trkpt>
      <trkpt lat="45.38248" lon="4.58142">
        <ele>1418</ele>
        <time>2017-07-31T17:07:57Z</time>
      </trkpt>
      <trkpt lat="45.38242" lon="4.58296">
        <ele>1402</ele>
        <time>2017-07-31T17:09:57Z</time>
      </trkpt>
      <trkpt lat="45.3817" lon="4.58425">
        <ele>1390</ele>
        <time>2017-07-31T17:11:57Z</time>
      </trkpt>
      <trkpt lat="45.3826" lon="4.58451">
        <ele>1386</ele>
        <time>2017-07-31T17:13:57Z</time>
      </trkpt>
      <trkpt lat="45.3826" lon="4.58571">
        <ele>1375</ele>
        <time>2017-07-31T17:15:57Z</time>
      </trkpt>
      <trkpt lat="45.38327" lon="4.58579">
        <ele>1375</ele>
        <time>2017-07-31T17:17:57Z</time>
      </trkpt>
      <trkpt lat="45.38411" lon="4.5864">
        <ele>1366</ele>
        <time>2017-07-31T17:19:57Z</time>
      </trkpt>
      <trkpt lat="45.38483" lon="4.58725">
        <ele>1364</ele>
        <time>2017-07-31T17:21:57Z</time>
      </trkpt>
      <trkpt lat="45.38507" lon="4.5888">
        <ele>1375</ele>
        <time>2017-07-31T17:23:57Z</time>
      </trkpt>
      <trkpt lat="45.3855" lon="4.59009">
        <ele>1381</ele>
        <time>2017-07-31T17:25:57Z</time>
      </trkpt>
      <trkpt lat="45.38586" lon="4.59129">
        <ele>1384</ele>
        <time>2017-07-31T17:27:57Z</time>
      </trkpt>
      <trkpt lat="45.38634" lon="4.59223">
        <ele>1380</ele>
        <time>2017-07-31T17:29:57Z</time>
      </trkpt>
      <trkpt lat="45.38658" lon="4.59352">
        <ele>1376</ele>
        <time>2017-07-31T17:31:57Z</time>
      </trkpt>
      <trkpt lat="45.38676" lon="4.59541">
        <ele>1376</ele>
        <time>2017-07-31T17:33:57Z</time>
      </trkpt>
      <trkpt lat="45.38712" lon="4.59652">
        <ele>1371</ele>
        <time>2017-07-31T17:35:57Z</time>
      </trkpt>
      <trkpt lat="45.38797" lon="4.59764">
        <ele>1355</ele>
        <time>2017-07-31T17:37:57Z</time>
      </trkpt>
      <trkpt lat="45.38869" lon="4.59867">
        <ele>1342</ele>
        <time>2017-07-31T17:39:57Z</time>
      </trkpt>
      <trkpt lat="45.38881" lon="4.60047">
        <ele>1351</ele>
        <time>2017-07-31T17:41:57Z</time>
      </trkpt>
      <trkpt lat="45.38881" lon="4.60202">
        <ele>1365</ele>
        <time>2017-07-31T17:43:57Z</time>
      </trkpt>
      <trkpt lat="45.38887" lon="4.60365">
        <ele>1379</ele>
        <time>2017-07-31T17:45:57Z</time>
      </trkpt>
      <trkpt lat="45.38863" lon="4.60528">
        <ele>1361</ele>
        <time>2017-07-31T17:47:57Z</time>
      </trkpt>
      <trkpt lat="45.38972" lon="4.60502">
        <ele>1366</ele>
        <time>2017-07-31T17:49:57Z</time>
      </trkpt>
      <trkpt lat="45.39044" lon="4.60562">
        <ele>1343</ele>
        <time>2017-07-31T17:51:57Z</time>
      </trkpt>
      <trkpt lat="45.39038" lon="4.60691">
        <ele>1330</ele>
        <time>2017-07-31T17:53:57Z</time>
      </trkpt>
      <trkpt lat="45.39122" lon="4.60837">
        <ele>1319</ele>
        <time>2017-07-31T17:55:57Z</time>
      </trkpt>
      <trkpt lat="45.39189" lon="4.60991">
        <ele>1334</ele>
        <time>2017-07-31T17:57:57Z</time>
      </trkpt>
      <trkpt lat="45.39255" lon="4.61163">
        <ele>1355</ele>
        <time>2017-07-31T17:59:57Z</time>
      </trkpt>
      <trkpt lat="45.39285" lon="4.61275">
        <ele>1338</ele>
        <time>2017-07-31T18:01:57Z</time>
      </trkpt>
      <trkpt lat="45.39393" lon="4.61309">
        <ele>1315</ele>
        <time>2017-07-31T18:03:57Z</time>
      </trkpt>
      <trkpt lat="45.39508" lon="4.61309">
        <ele>1290</ele>
        <time>2017-07-31T18:05:57Z</time>
      </trkpt>
      <trkpt lat="45.39469" lon="4.61239">
        <ele>1295</ele>
        <time>2017-07-31T18:07:57Z</time>
      </trkpt>
      <trkpt lat="45.39417" lon="4.61106">
        <ele>1285</ele>
        <time>2017-07-31T18:09:57Z</time>
      </trkpt>
      <trkpt lat="45.39553" lon="4.61148">
        <ele>1248</ele>
        <time>2017-07-31T18:11:57Z</time>
      </trkpt>
      <trkpt lat="45.39441" lon="4.60977">
        <ele>1256</ele>
        <time>2017-07-31T18:13:57Z</time>
      </trkpt>
      <trkpt lat="45.39408" lon="4.60762">
        <ele>1253</ele>
        <time>2017-07-31T18:15:57Z</time>
      </trkpt>
      <trkpt lat="45.39453" lon="4.60852">
        <ele>1240</ele>
        <time>2017-07-31T18:17:57Z</time>
      </trkpt>
      <trkpt lat="45.39487" lon="4.60908">
        <ele>1226</ele>
        <time>2017-07-31T18:19:57Z</time>
      </trkpt>
      <trkpt lat="45.3955" lon="4.60702">
        <ele>1182</ele>
        <time>2017-07-31T18:21:57Z</time>
      </trkpt>
      <trkpt lat="45.39616" lon="4.60591">
        <ele>1153</ele>
        <time>2017-07-31T18:23:57Z</time>
      </trkpt>
      <trkpt lat="45.39695" lon="4.60771">
        <ele>1116</ele>
        <time>2017-07-31T18:25:57Z</time>
      </trkpt>
      <trkpt lat="45.39713" lon="4.60509">
        <ele>1117</ele>
        <time>2017-07-31T18:27:57Z</time>
      </trkpt>
      <trkpt lat="45.39622" lon="4.60432">
        <ele>1134</ele>
        <time>2017-07-31T18:29:57Z</time>
      </trkpt>
      <trkpt lat="45.39571" lon="4.6038">
        <ele>1143</ele>
        <time>2017-07-31T18:31:57Z</time>
      </trkpt>
      <trkpt lat="45.39649" lon="4.60088">
        <ele>1140</ele>
        <time>2017-07-31T18:33:57Z</time>
      </trkpt>
      <trkpt lat="45.39788" lon="4.59895">
        <ele>1133</ele>
        <time>2017-07-31T18:35:57Z</time>
      </trkpt>
      <trkpt lat="45.3977" lon="4.59775">
        <ele>1131</ele>
        <time>2017-07-31T18:37:57Z</time>
      </trkpt>
      <trkpt lat="45.39652" lon="4.59573">
        <ele>1128</ele>
        <time>2017-07-31T18:39:57Z</time>
      </trkpt>
      <trkpt lat="45.39423" lon="4.59475">
        <ele>1129</ele>
        <time>2017-07-31T18:41:57Z</time>
      </trkpt>
      <trkpt lat="45.39363" lon="4.5944">
        <ele>1138</ele>
        <time>2017-07-31T18:43:57Z</time>
      </trkpt>
      <trkpt lat="45.39384" lon="4.59247">
        <ele>1131</ele>
        <time>2017-07-31T18:45:57Z</time>
      </trkpt>
      <trkpt lat="45.39435" lon="4.5908">
        <ele>1125</ele>
        <time>2017-07-31T18:47:57Z</time>
      </trkpt>
      <trkpt lat="45.39297" lon="4.58925">
        <ele>1119</ele>
        <time>2017-07-31T18:49:57Z</time>
      </trkpt>
      <trkpt lat="45.39182" lon="4.58818">
        <ele>1121</ele>
        <time>2017-07-31T18:51:57Z</time>
      </trkpt>
      <trkpt lat="45.39285" lon="4.58719">
        <ele>1107</ele>
        <time>2017-07-31T18:53:57Z</time>
      </trkpt>
      <trkpt lat="45.39384" lon="4.58668">
        <ele>1102</ele>
        <time>2017-07-31T18:55:57Z</time>
      </trkpt>
      <trkpt lat="45.39478" lon="4.58582">
        <ele>1101</ele>
        <time>2017-07-31T18:57:57Z</time>
      </trkpt>
      <trkpt lat="45.39607" lon="4.58432">
        <ele>1088</ele>
        <time>2017-07-31T18:59:57Z</time>
      </trkpt>
      <trkpt lat="45.39734" lon="4.58307">
        <ele>1092</ele>
        <time>2017-07-31T19:01:57Z</time>
      </trkpt>
      <trkpt lat="45.40005" lon="4.58256">
        <ele>1066</ele>
        <time>2017-07-31T19:03:57Z</time>
      </trkpt>
      <trkpt lat="45.40141" lon="4.58256">
        <ele>1055</ele>
        <time>2017-07-31T19:05:57Z</time>
      </trkpt>
      <trkpt lat="45.40306" lon="4.58183">
        <ele>1064</ele>
        <time>2017-07-31T19:07:57Z</time>
      </trkpt>
      <trkpt lat="45.4043" lon="4.58132">
        <ele>1062</ele>
        <time>2017-07-31T19:09:57Z</time>
      </trkpt>
      <trkpt lat="45.40472" lon="4.58024">
        <ele>1056</ele>
        <time>2017-07-31T19:11:57Z</time>
      </trkpt>
      <trkpt lat="45.40394" lon="4.57908">
        <ele>1067</ele>
        <time>2017-07-31T19:13:57Z</time>
      </trkpt>
      <trkpt lat="45.40324" lon="4.57762">
        <ele>1064</ele>
        <time>2017-07-31T19:15:57Z</time>
      </trkpt>
      <trkpt lat="45.40285" lon="4.57677">
        <ele>1062</ele>
        <time>2017-07-31T19:17:57Z</time>
      </trkpt>
      <trkpt lat="45.40219" lon="4.57599">
        <ele>1069</ele>
        <time>2017-07-31T19:19:57Z</time>
      </trkpt>
      <trkpt lat="45.40324" lon="4.57492">
        <ele>1057</ele>
        <time>2017-07-31T19:21:57Z</time>
      </trkpt>
      <trkpt lat="45.40496" lon="4.57423">
        <ele>1039</ele>
        <time>2017-07-31T19:23:57Z</time>
      </trkpt>
      <trkpt lat="45.40647" lon="4.57359">
        <ele>1039</ele>
        <time>2017-07-31T19:25:57Z</time>
      </trkpt>
      <trkpt lat="45.40803" lon="4.57342">
        <ele>1029</ele>
        <time>2017-07-31T19:27:57Z</time>
      </trkpt>
      <trkpt lat="45.4102" lon="4.57406">
        <ele>1002</ele>
        <time>2017-07-31T19:29:57Z</time>
      </trkpt>
      <trkpt lat="45.41102" lon="4.57359">
        <ele>994</ele>
        <time>2017-07-31T19:31:57Z</time>
      </trkpt>
      <trkpt lat="45.41192" lon="4.57308">
        <ele>976</ele>
        <time>2017-07-31T19:33:57Z</time>
      </trkpt>
      <trkpt lat="45.4127" lon="4.57196">
        <ele>971</ele>
        <time>2017-07-31T19:35:57Z</time>
      </trkpt>
      <trkpt lat="45.41313" lon="4.57054">
        <ele>960</ele>
        <time>2017-07-31T19:37:57Z</time>
      </trkpt>
      <trkpt lat="45.41295" lon="4.56878">
        <ele>945</ele>
        <time>2017-07-31T19:39:57Z</time>
      </trkpt>
      <trkpt lat="45.41186" lon="4.5669">
        <ele>962</ele>
        <time>2017-07-31T19:41:57Z</time>
      </trkpt>
      <trkpt lat="45.41096" lon="4.56445">
        <ele>962</ele>
        <time>2017-07-31T19:43:57Z</time>
      </trkpt>
      <trkpt lat="45.4106" lon="4.56303">
        <ele>965</ele>
        <time>2017-07-31T19:45:57Z</time>
      </trkpt>
      <trkpt lat="45.41147" lon="4.5611">
        <ele>952</ele>
        <time>2017-07-31T19:47:57Z</time>
      </trkpt>
      <trkpt lat="45.41319" lon="4.5593">
        <ele>928</ele>
        <time>2017-07-31T19:49:57Z</time>
      </trkpt>
      <trkpt lat="45.41358" lon="4.5587">
        <ele>919</ele>
        <time>2017-07-31T19:51:57Z</time>
      </trkpt>
      <trkpt lat="45.414" lon="4.55569">
        <ele>899</ele>
        <time>2017-07-31T19:53:57Z</time>
      </trkpt>
      <trkpt lat="45.414" lon="4.55338">
        <ele>879</ele>
        <time>2017-07-31T19:55:57Z</time>
      </trkpt>
      <trkpt lat="45.41472" lon="4.55054">
        <ele>859</ele>
        <time>2017-07-31T19:57:57Z</time>
      </trkpt>
      <trkpt lat="45.41508" lon="4.54964">
        <ele>850</ele>
        <time>2017-07-31T19:59:57Z</time>
      </trkpt>
      <trkpt lat="45.41689" lon="4.54874">
        <ele>843</ele>
        <time>2017-07-31T20:01:57Z</time>
      </trkpt>
      <trkpt lat="45.41822" lon="4.54861">
        <ele>845</ele>
        <time>2017-07-31T20:03:57Z</time>
      </trkpt>
      <trkpt lat="45.41939" lon="4.54818">
        <ele>848</ele>
        <time>2017-07-31T20:05:57Z</time>
      </trkpt>
      <trkpt lat="45.42078" lon="4.54776">
        <ele>844</ele>
        <time>2017-07-31T20:07:57Z</time>
      </trkpt>
      <trkpt lat="45.42177" lon="4.5478">
        <ele>848</ele>
        <time>2017-07-31T20:09:57Z</time>
      </trkpt>
      <trkpt lat="45.42298" lon="4.54887">
        <ele>851</ele>
        <time>2017-07-31T20:11:57Z</time>
      </trkpt>
      <trkpt lat="45.42436" lon="4.55046">
        <ele>846</ele>
        <time>2017-07-31T20:13:57Z</time>
      </trkpt>
      <trkpt lat="45.42548" lon="4.55007">
        <ele>850</ele>
        <time>2017-07-31T20:15:57Z</time>
      </trkpt>
      <trkpt lat="45.42656" lon="4.54994">
        <ele>838</ele>
        <time>2017-07-31T20:17:57Z</time>
      </trkpt>
      <trkpt lat="45.42831" lon="4.54939">
        <ele>822</ele>
        <time>2017-07-31T20:19:57Z</time>
      </trkpt>
      <trkpt lat="45.42912" lon="4.54827">
        <ele>828</ele>
        <time>2017-07-31T20:21:57Z</time>
      </trkpt>
      <trkpt lat="45.4306" lon="4.54677">
        <ele>801</ele>
        <time>2017-07-31T20:23:57Z</time>
      </trkpt>
      <trkpt lat="45.43156" lon="4.54587">
        <ele>792</ele>
        <time>2017-07-31T20:25:57Z</time>
      </trkpt>
    </trkseg>
  </trk>
</gpx>